Terminal Aerodrome Forecast
Issued by NWS Duluth, MN

Home | Current Version | Previous Version | Text Only | Print | Product List | Glossary On
Versions: 1 2 3 4 5 6 7 8 9 10 11 12 13 14 15 16 17 18 19 20 21 22 23 24 25 26 27 28 29 30
509
FTUS43 KDLH 260528
TAFINL
TAF
KINL 260528Z 2606/2706 06006KT P6SM VCSH BKN013 OVC023
     FM260900 04005KT 5SM -SHRA BR OVC008
     FM261800 01005KT 2SM -SHRA BR OVC008
     FM262200 33005KT 4SM BR VCSH OVC010
     FM270100 31005KT 5SM BR OVC010=

USA.gov is the U.S. government's official web portal to all federal, state and local government web resources and services.